Witmer Manor, Indiana
Current Conditions -  °F | °C
As of 12:55 PM on Wednesday 26 Nov 2014 (Local Time) from KANQ Reporting Station
Overcast Overcast  
Wind Chill: 20°   Ceiling: 1900
Heat Index: 27°   Visibility: 10mi
Dew Point: 19°   Wind: 6mph
Humidity: 74%   Direction: 120°ESE
Pressure: 30.09"   Gusts: NA
Location:  41.5677°N, 85.3125°W
Report Text: KANQ 261755Z AUTO 12005KT 10SM OVC019 M03/M07 A3009 RMK
Loading
Personal Weather Stations






























Interactive Weather Map New forecast layout! Learn more

10-Day Weather Forecast

Advertisements
Track Severe Weather on mobile